Time;durP1;ratioP1;P1;durP2;ratioP2;P2;SDS_P1;SDS_P2;PMS_P1;PMS_P2;Temp;Humidity;BMP_temperature;BMP_pressure;BME280_temperature;BME280_humidity;BME280_pressure;Samples;Min_cycle;Max_cycle;Signal;HPM_P1;HPM_P2
2020/12/15 00:00:15;;;;;;;50.03;29.57;;;;;;;-0.95;86.31;99722.73;517012;1090;65173;-61
2020/12/15 00:10:19;;;;;;;47.20;30.83;;;;;;;-0.86;86.67;99726.05;516983;1097;65197;-61
2020/12/15 00:20:25;;;;;;;50.33;30.53;;;;;;;-0.87;86.59;99714.01;516996;1090;65262;-61
2020/12/15 00:30:29;;;;;;;54.27;29.97;;;;;;;-0.82;87.07;99723.42;516959;1097;65185;-61
2020/12/15 00:40:33;;;;;;;45.77;26.10;;;;;;;-0.84;86.45;99723.43;517588;1095;65157;-61
2020/12/15 00:50:37;;;;;;;52.90;30.67;;;;;;;-0.83;87.35;99722.55;517770;1095;65285;-61
2020/12/15 01:00:41;;;;;;;49.00;26.73;;;;;;;-0.84;86.57;99736.33;517326;1095;65185;-61
2020/12/15 01:10:46;;;;;;;48.53;26.63;;;;;;;-0.80;86.87;99734.56;516527;1096;65170;-61
2020/12/15 01:20:50;;;;;;;44.10;27.37;;;;;;;-0.67;86.87;99722.34;517441;1097;65153;-61
2020/12/15 01:30:53;;;;;;;45.70;23.43;;;;;;;-0.58;87.26;99737.64;517039;1097;65189;-61
2020/12/15 01:40:58;;;;;;;46.33;27.57;;;;;;;-0.48;86.23;99743.53;517103;1096;65150;-60
2020/12/15 01:51:05;;;;;;;44.80;24.17;;;;;;;-0.39;86.51;99735.64;517170;1098;65517;-63
2020/12/15 02:01:09;;;;;;;39.57;24.80;;;;;;;-0.38;86.68;99739.05;517266;1097;65163;-60
2020/12/15 02:11:13;;;;;;;43.83;25.57;;;;;;;-0.40;87.07;99739.11;517624;1098;65514;-61
2020/12/15 02:21:17;;;;;;;48.40;25.27;;;;;;;-0.31;86.72;99728.60;517466;1097;65176;-60
2020/12/15 02:31:21;;;;;;;47.77;27.20;;;;;;;-0.26;86.56;99730.27;517370;1097;65202;-61
2020/12/15 02:41:26;;;;;;;49.27;25.53;;;;;;;-0.25;87.35;99716.48;517108;1098;65188;-60
2020/12/15 02:51:30;;;;;;;46.90;26.20;;;;;;;-0.24;87.13;99713.86;517086;1093;65243;-60
2020/12/15 03:01:40;;;;;;;45.70;24.87;;;;;;;-0.24;86.57;99694.96;517210;1097;65607;-62
2020/12/15 03:11:47;;;;;;;41.50;26.47;;;;;;;-0.22;86.90;99700.94;517323;1095;65268;-61
2020/12/15 03:21:51;;;;;;;39.43;23.10;;;;;;;-0.20;87.16;99694.88;517121;1096;65236;-60
2020/12/15 03:31:55;;;;;;;42.13;22.83;;;;;;;-0.21;86.96;99706.09;517305;1098;65229;-60
2020/12/15 03:42:00;;;;;;;39.60;24.83;;;;;;;-0.21;86.99;99703.51;517274;1098;65232;-61
2020/12/15 03:52:04;;;;;;;42.50;25.13;;;;;;;-0.29;86.44;99706.23;517148;1097;65225;-60
2020/12/15 04:02:07;;;;;;;46.43;26.80;;;;;;;-0.32;87.47;99695.10;517250;1097;65179;-60
2020/12/15 04:12:14;;;;;;;41.33;24.20;;;;;;;-0.37;87.27;99704.64;517495;1096;65585;-61
2020/12/15 04:22:21;;;;;;;44.88;24.57;;;;;;;-0.40;86.64;99708.14;517325;1090;65182;-61
2020/12/15 04:32:25;;;;;;;41.20;24.60;;;;;;;-0.37;86.33;99700.34;517403;1095;65211;-64
2020/12/15 04:42:29;;;;;;;46.80;25.67;;;;;;;-0.38;86.72;99706.38;517221;1097;65185;-62
2020/12/15 04:52:52;;;;;;;47.77;23.90;;;;;;;-0.37;86.67;99696.89;517218;1096;65176;-60
2020/12/15 05:02:57;;;;;;;48.80;27.03;;;;;;;-0.41;87.30;99703.00;517311;1090;65808;-59
2020/12/15 05:13:01;;;;;;;54.00;29.00;;;;;;;-0.47;87.32;99712.52;517238;1097;65421;-61
2020/12/15 05:23:06;;;;;;;43.30;25.10;;;;;;;-0.44;86.92;99722.81;517256;1097;65179;-60
2020/12/15 05:33:16;;;;;;;46.27;25.27;;;;;;;-0.45;86.88;99723.70;517427;1097;65812;-61
2020/12/15 05:43:26;;;;;;;43.63;24.80;;;;;;;-0.48;86.96;99721.14;517329;1097;66228;-60
2020/12/15 05:53:31;;;;;;;43.00;24.23;;;;;;;-0.50;86.94;99720.32;517549;1096;65150;-59
2020/12/15 06:03:38;;;;;;;44.43;23.73;;;;;;;-0.54;87.06;99725.55;517410;1097;65175;-60
2020/12/15 06:13:44;;;;;;;43.87;22.67;;;;;;;-0.58;86.24;99724.75;517249;1096;65229;-61
2020/12/15 06:23:58;;;;;;;46.37;23.07;;;;;;;-0.69;86.38;99730.09;517629;1097;65286;-60
2020/12/15 06:34:03;;;;;;;42.43;21.33;;;;;;;-0.76;87.00;99738.78;517323;1097;65210;-60
2020/12/15 06:44:08;;;;;;;45.80;25.13;;;;;;;-0.84;86.99;99731.17;517277;1096;65557;-60
2020/12/15 06:54:12;;;;;;;48.27;26.90;;;;;;;-0.87;87.06;99733.80;517230;1096;65146;-60
2020/12/15 07:04:21;;;;;;;51.23;24.70;;;;;;;-0.98;87.47;99728.81;508019;1090;10001931;-60
2020/12/15 07:14:25;;;;;;;44.35;24.00;;;;;;;-0.99;87.31;99739.97;516601;1097;65153;-59
2020/12/15 07:24:32;;;;;;;55.97;28.33;;;;;;;-1.01;86.93;99734.86;516695;1097;65579;-60
2020/12/15 07:34:37;;;;;;;53.07;27.00;;;;;;;-1.00;86.72;99728.83;516873;1095;65240;-61
2020/12/15 07:44:41;;;;;;;46.00;26.00;;;;;;;-0.97;86.94;99740.83;516748;1090;65290;-61
2020/12/15 07:54:45;;;;;;;43.33;23.60;;;;;;;-0.95;86.93;99744.23;516679;1097;65312;-60
2020/12/15 08:04:50;;;;;;;48.67;26.70;;;;;;;-0.86;86.80;99738.95;516455;1095;65610;-60
2020/12/15 08:14:54;;;;;;;41.60;23.27;;;;;;;-0.85;87.25;99740.64;516876;1095;65588;-61
2020/12/15 08:24:58;;;;;;;39.40;22.90;;;;;;;-0.69;86.40;99745.56;517174;1097;65152;-59
2020/12/15 08:35:04;;;;;;;38.97;21.73;;;;;;;-0.60;86.26;99750.59;516740;1090;65174;-63
2020/12/15 08:45:16;;;;;;;39.95;23.10;;;;;;;-0.40;85.94;99759.75;519852;1095;65317;-60
2020/12/15 08:55:29;;;;;;;41.53;24.90;;;;;;;-0.31;85.74;99758.73;520177;1095;65156;-62
2020/12/15 09:05:44;;;;;;;44.13;26.20;;;;;;;-0.05;84.69;99747.10;518302;1095;65256;-64
2020/12/15 09:15:52;;;;;;;46.60;24.93;;;;;;;0.39;84.76;99737.67;517673;1097;65630;-64
2020/12/15 09:25:59;;;;;;;37.00;24.90;;;;;;;0.64;84.72;99738.92;517368;1095;65275;-59
2020/12/15 09:36:03;;;;;;;37.93;24.15;;;;;;;0.55;84.48;99733.05;517426;1096;65665;-65
2020/12/15 09:46:08;;;;;;;44.17;25.87;;;;;;;0.43;83.68;99728.13;517303;1096;65232;-60
2020/12/15 09:56:16;;;;;;;39.17;23.30;;;;;;;0.48;84.19;99713.38;518145;1095;65293;-70
2020/12/15 10:06:23;;;;;;;43.70;27.50;;;;;;;0.53;83.38;99696.06;517544;1095;65610;-60
2020/12/15 10:16:27;;;;;;;45.37;27.40;;;;;;;0.47;83.56;99696.17;517084;1095;65279;-62
2020/12/15 10:26:32;;;;;;;47.27;28.20;;;;;;;0.62;83.89;99681.22;517196;1095;65579;-60
2020/12/15 10:36:37;;;;;;;44.40;26.70;;;;;;;0.67;84.11;99690.58;517499;1095;65588;-59
2020/12/15 10:46:41;;;;;;;34.33;22.40;;;;;;;0.48;83.23;99681.53;517406;1090;65238;-58
2020/12/15 10:56:45;;;;;;;34.33;21.37;;;;;;;0.61;83.83;99682.10;517198;1090;65182;-64
2020/12/15 11:06:49;;;;;;;33.50;20.10;;;;;;;0.72;83.11;99684.47;517786;1095;65270;-60
2020/12/15 11:16:53;;;;;;;34.87;22.27;;;;;;;1.06;83.05;99670.78;499535;1095;20001907;-69
2020/12/15 11:26:57;;;;;;;36.57;22.13;;;;;;;1.29;83.33;99649.52;516252;1095;65258;-63
2020/12/15 11:37:03;;;;;;;35.60;23.60;;;;;;;1.42;82.74;99647.48;516792;1095;65150;-62
2020/12/15 11:47:07;;;;;;;35.27;21.00;;;;;;;1.68;82.84;99651.13;516800;1090;65183;-68
2020/12/15 11:57:14;;;;;;;34.60;21.57;;;;;;;1.89;82.37;99638.49;517177;1090;65188;-67
2020/12/15 12:07:18;;;;;;;34.23;22.90;;;;;;;1.90;82.25;99646.20;516640;1090;65253;-62
2020/12/15 12:17:22;;;;;;;35.77;20.47;;;;;;;2.12;82.19;99630.06;517282;1090;65676;-64
2020/12/15 12:27:26;;;;;;;29.83;19.97;;;;;;;2.48;81.29;99626.45;516596;1090;65136;-62
2020/12/15 12:37:30;;;;;;;31.43;18.60;;;;;;;2.56;81.30;99621.89;516859;1097;65176;-67
2020/12/15 12:47:34;;;;;;;30.37;18.57;;;;;;;2.53;80.97;99624.55;517025;1097;65185;-63
2020/12/15 12:57:40;;;;;;;33.30;18.40;;;;;;;2.57;80.96;99620.99;516744;1097;65207;-69
2020/12/15 13:07:46;;;;;;;30.93;19.80;;;;;;;2.59;80.94;99614.02;516912;1097;65157;-63
2020/12/15 13:17:50;;;;;;;30.77;19.27;;;;;;;2.38;80.68;99618.95;516864;1096;65175;-63
2020/12/15 13:27:54;;;;;;;35.30;19.83;;;;;;;2.31;81.10;99619.18;517026;1097;65268;-63
2020/12/15 13:37:59;;;;;;;31.47;18.03;;;;;;;2.33;80.87;99622.56;516875;1090;65258;-65
2020/12/15 13:48:03;;;;;;;32.57;19.80;;;;;;;2.26;80.82;99632.27;516785;1090;65473;-61
2020/12/15 13:58:07;;;;;;;35.57;19.10;;;;;;;2.05;80.80;99631.98;508143;1090;10001288;-66
2020/12/15 14:08:11;;;;;;;35.57;22.37;;;;;;;1.85;81.26;99632.55;516698;1093;65155;-62
2020/12/15 14:18:15;;;;;;;36.97;21.57;;;;;;;1.67;81.06;99645.11;517028;1090;65268;-64
2020/12/15 14:28:20;;;;;;;41.23;24.57;;;;;;;1.53;81.83;99636.84;516522;1095;65389;-61
2020/12/15 14:38:24;;;;;;;36.10;22.57;;;;;;;1.36;82.13;99645.89;516782;1095;65207;-62
2020/12/15 14:48:31;;;;;;;44.33;25.27;;;;;;;1.15;82.03;99654.19;516880;1096;65162;-70
2020/12/15 14:58:36;;;;;;;43.53;26.43;;;;;;;0.99;82.41;99651.98;516796;1097;65258;-65
2020/12/15 15:08:40;;;;;;;39.27;23.47;;;;;;;0.87;82.23;99650.52;517074;1095;65681;-59
2020/12/15 15:18:44;;;;;;;41.10;27.03;;;;;;;0.83;82.52;99641.97;516973;1095;65171;-63
2020/12/15 15:28:49;;;;;;;37.80;22.30;;;;;;;0.90;82.39;99637.50;516916;1095;65192;-60
2020/12/15 15:38:56;;;;;;;39.43;24.10;;;;;;;0.87;82.76;99631.58;517130;1097;65246;-61
2020/12/15 15:48:59;;;;;;;43.80;24.17;;;;;;;0.85;82.38;99616.09;516512;1090;65179;-61
2020/12/15 15:59:03;;;;;;;35.53;22.77;;;;;;;0.83;82.17;99628.21;516358;1090;65176;-63
2020/12/15 16:09:09;;;;;;;38.07;23.97;;;;;;;0.75;82.42;99618.05;516333;1090;65666;-63
2020/12/15 16:19:13;;;;;;;41.10;23.97;;;;;;;0.75;82.88;99641.32;516623;1097;65256;-64
2020/12/15 16:29:17;;;;;;;40.10;24.63;;;;;;;0.68;82.78;99621.66;516644;1097;65583;-65
2020/12/15 16:39:23;;;;;;;56.43;29.27;;;;;;;0.57;82.91;99639.13;515688;1097;65647;-71
2020/12/15 16:49:28;;;;;;;47.73;26.30;;;;;;;0.67;83.57;99627.71;516901;1095;65153;-74
2020/12/15 16:59:33;;;;;;;37.50;23.53;;;;;;;0.79;83.21;99616.22;520374;1090;65172;-78
2020/12/15 17:09:37;;;;;;;37.00;22.57;;;;;;;0.93;83.00;99623.66;519923;1097;65173;-67
2020/12/15 17:19:42;;;;;;;42.33;27.20;;;;;;;0.94;83.11;99628.81;517161;1090;65217;-67
2020/12/15 17:29:46;;;;;;;41.87;26.07;;;;;;;1.06;83.36;99640.58;516524;1090;65173;-63
2020/12/15 17:39:52;;;;;;;40.37;24.93;;;;;;;1.20;83.50;99636.80;516768;1090;65674;-63
2020/12/15 17:49:57;;;;;;;37.00;25.30;;;;;;;1.28;83.33;99642.64;516772;1090;65256;-63
2020/12/15 18:00:00;;;;;;;43.80;25.67;;;;;;;1.32;83.38;99636.48;516429;1090;65223;-66
2020/12/15 18:10:04;;;;;;;41.53;26.17;;;;;;;1.27;83.52;99620.25;516192;1090;65227;-67
2020/12/15 18:20:08;;;;;;;37.27;23.57;;;;;;;1.32;83.57;99633.91;516664;1096;65175;-65
2020/12/15 18:30:17;;;;;;;39.20;24.93;;;;;;;1.40;83.35;99633.73;516947;1095;65272;-65
2020/12/15 18:40:26;;;;;;;43.67;22.90;;;;;;;1.47;82.80;99634.42;516400;1097;65261;-63
2020/12/15 18:50:35;;;;;;;43.30;26.33;;;;;;;1.51;83.01;99642.08;516529;1090;65226;-63
2020/12/15 19:00:44;;;;;;;44.53;26.50;;;;;;;1.52;82.72;99638.59;516604;1097;65252;-67
2020/12/15 19:10:52;;;;;;;39.25;25.85;;;;;;;1.47;82.91;99639.60;516563;1090;65538;-63
2020/12/15 19:21:00;;;;;;;46.77;29.07;;;;;;;1.47;83.11;99643.02;516846;1097;65185;-64
2020/12/15 19:31:15;;;;;;;39.97;25.57;;;;;;;1.54;82.38;99638.53;517026;1097;65230;-66
2020/12/15 19:41:23;;;;;;;43.65;26.65;;;;;;;1.57;82.52;99645.38;517099;1095;65230;-64
2020/12/15 19:51:32;;;;;;;44.03;26.80;;;;;;;1.51;82.78;99641.20;516444;1090;65945;-63
2020/12/15 20:01:42;;;;;;;45.30;27.63;;;;;;;1.58;82.68;99647.94;516292;1095;65268;-66
2020/12/15 20:11:51;;;;;;;55.57;30.43;;;;;;;1.70;82.25;99648.50;516585;1095;65604;-69
2020/12/15 20:22:00;;;;;;;47.60;26.83;;;;;;;1.76;82.01;99658.68;517001;1090;65150;-66
2020/12/15 20:32:09;;;;;;;36.10;23.00;;;;;;;1.74;82.05;99670.83;516610;1090;65306;-64
2020/12/15 20:42:18;;;;;;;39.70;24.77;;;;;;;1.68;82.32;99659.75;516692;1090;65258;-67
2020/12/15 20:52:27;;;;;;;53.70;28.70;;;;;;;1.80;81.95;99655.97;516721;1090;65313;-65
2020/12/15 21:02:40;;;;;;;35.43;22.03;;;;;;;1.95;81.62;99659.89;517169;1097;65229;-64
2020/12/15 21:12:49;;;;;;;31.87;18.47;;;;;;;1.96;81.36;99660.72;516288;1090;65557;-62
2020/12/15 21:22:53;;;;;;;34.20;19.93;;;;;;;1.94;81.29;99665.97;516422;1090;65252;-66
2020/12/15 21:33:02;;;;;;;33.23;19.50;;;;;;;2.01;81.30;99666.64;516747;1095;65657;-65
2020/12/15 21:43:08;;;;;;;27.70;18.75;;;;;;;2.09;80.70;99671.61;516910;1095;65185;-65
2020/12/15 21:53:32;;;;;;;29.37;17.50;;;;;;;2.04;80.78;99669.14;516548;1097;65511;-65
2020/12/15 22:03:36;;;;;;;29.07;17.60;;;;;;;1.94;80.95;99678.05;517032;1095;65629;-62
2020/12/15 22:13:40;;;;;;;34.07;21.10;;;;;;;1.92;80.74;99667.75;516901;1090;65265;-62
2020/12/15 22:23:44;;;;;;;33.60;21.00;;;;;;;1.93;80.29;99663.41;516910;1090;65153;-69
2020/12/15 22:33:48;;;;;;;33.87;20.50;;;;;;;1.91;80.67;99663.47;516548;1096;65236;-68
2020/12/15 22:43:52;;;;;;;26.30;15.93;;;;;;;1.91;80.65;99662.60;516863;1090;65370;-66
2020/12/15 22:53:55;;;;;;;27.73;17.13;;;;;;;1.79;80.60;99659.45;517012;1095;65472;-67
2020/12/15 23:03:59;;;;;;;29.70;19.20;;;;;;;1.71;80.45;99661.39;516879;1096;65568;-64
2020/12/15 23:14:04;;;;;;;33.50;18.10;;;;;;;1.78;80.33;99667.25;517577;1095;65556;-64
2020/12/15 23:24:08;;;;;;;29.10;15.87;;;;;;;1.89;80.21;99682.52;517469;1095;65581;-63
2020/12/15 23:34:12;;;;;;;25.20;16.10;;;;;;;1.85;80.50;99679.16;516842;1090;65439;-68
2020/12/15 23:44:16;;;;;;;27.47;16.20;;;;;;;1.82;80.51;99680.08;517093;1097;65155;-69
2020/12/15 23:54:20;;;;;;;24.03;15.57;;;;;;;1.88;80.21;99701.54;517016;1090;65153;-66
